sensor_id;sensor_type;location;lat;lon;timestamp;pressure;altitude;pressure_sealevel;temperature;humidity
9307;BME280;4691;47.612;7.610;2022-11-14T00:00:36;99713.91;;;6.58;100.00
9307;BME280;4691;47.612;7.610;2022-11-14T00:03:04;99717.34;;;6.60;100.00
9307;BME280;4691;47.612;7.610;2022-11-14T00:05:30;99693.88;;;6.50;100.00
9307;BME280;4691;47.612;7.610;2022-11-14T00:07:55;99688.31;;;6.74;100.00
9307;BME280;4691;47.612;7.610;2022-11-14T00:10:21;99682.38;;;6.69;100.00
9307;BME280;4691;47.612;7.610;2022-11-14T00:12:47;99687.31;;;6.76;100.00
9307;BME280;4691;47.612;7.610;2022-11-14T00:15:12;99684.28;;;6.65;100.00
9307;BME280;4691;47.612;7.610;2022-11-14T00:17:38;99670.50;;;6.76;100.00
9307;BME280;4691;47.612;7.610;2022-11-14T00:20:05;99669.56;;;6.77;100.00
9307;BME280;4691;47.612;7.610;2022-11-14T00:22:31;99678.00;;;6.85;100.00
9307;BME280;4691;47.612;7.610;2022-11-14T00:24:56;99668.03;;;6.90;100.00
9307;BME280;4691;47.612;7.610;2022-11-14T00:27:22;99666.59;;;6.83;100.00
9307;BME280;4691;47.612;7.610;2022-11-14T00:29:47;99665.16;;;6.59;100.00
9307;BME280;4691;47.612;7.610;2022-11-14T00:32:12;99656.19;;;6.42;100.00
9307;BME280;4691;47.612;7.610;2022-11-14T00:34:38;99638.34;;;6.44;100.00
9307;BME280;4691;47.612;7.610;2022-11-14T00:37:03;99625.81;;;6.48;100.00
9307;BME280;4691;47.612;7.610;2022-11-14T00:39:28;99632.13;;;6.45;100.00
9307;BME280;4691;47.612;7.610;2022-11-14T00:41:54;99631.22;;;6.64;100.00
9307;BME280;4691;47.612;7.610;2022-11-14T00:44:19;99631.00;;;6.68;100.00
9307;BME280;4691;47.612;7.610;2022-11-14T00:46:44;99635.75;;;6.62;100.00
9307;BME280;4691;47.612;7.610;2022-11-14T00:49:09;99626.28;;;6.56;100.00
9307;BME280;4691;47.612;7.610;2022-11-14T00:51:35;99619.50;;;6.68;100.00
9307;BME280;4691;47.612;7.610;2022-11-14T00:54:00;99624.81;;;6.68;100.00
9307;BME280;4691;47.612;7.610;2022-11-14T00:56:26;99638.63;;;6.76;100.00
9307;BME280;4691;47.612;7.610;2022-11-14T00:58:51;99649.09;;;6.79;100.00
9307;BME280;4691;47.612;7.610;2022-11-14T01:01:16;99647.34;;;6.61;100.00
9307;BME280;4691;47.612;7.610;2022-11-14T01:03:42;99627.78;;;6.62;100.00
9307;BME280;4691;47.612;7.610;2022-11-14T01:06:09;99614.44;;;6.63;100.00
9307;BME280;4691;47.612;7.610;2022-11-14T01:08:35;99602.59;;;6.51;100.00
9307;BME280;4691;47.612;7.610;2022-11-14T01:11:11;99595.41;;;6.53;100.00
9307;BME280;4691;47.612;7.610;2022-11-14T01:13:37;99592.44;;;6.42;100.00
9307;BME280;4691;47.612;7.610;2022-11-14T01:16:03;99581.66;;;6.45;100.00
9307;BME280;4691;47.612;7.610;2022-11-14T01:18:28;99572.81;;;6.62;100.00
9307;BME280;4691;47.612;7.610;2022-11-14T01:20:54;99589.34;;;6.69;100.00
9307;BME280;4691;47.612;7.610;2022-11-14T01:23:19;99601.84;;;6.67;100.00
9307;BME280;4691;47.612;7.610;2022-11-14T01:25:45;99602.69;;;6.67;100.00
9307;BME280;4691;47.612;7.610;2022-11-14T01:28:13;99607.59;;;6.58;100.00
9307;BME280;4691;47.612;7.610;2022-11-14T01:30:38;99602.16;;;6.61;100.00
9307;BME280;4691;47.612;7.610;2022-11-14T01:33:04;99596.22;;;6.56;100.00
9307;BME280;4691;47.612;7.610;2022-11-14T01:35:34;99589.88;;;6.58;100.00
9307;BME280;4691;47.612;7.610;2022-11-14T01:38:00;99585.63;;;6.54;100.00
9307;BME280;4691;47.612;7.610;2022-11-14T01:40:26;99577.75;;;6.52;100.00
9307;BME280;4691;47.612;7.610;2022-11-14T01:45:52;99596.53;;;6.67;100.00
9307;BME280;4691;47.612;7.610;2022-11-14T01:48:21;99588.22;;;6.56;100.00
9307;BME280;4691;47.612;7.610;2022-11-14T01:50:54;99584.09;;;6.50;100.00
9307;BME280;4691;47.612;7.610;2022-11-14T01:53:20;99580.38;;;6.35;100.00
9307;BME280;4691;47.612;7.610;2022-11-14T01:55:45;99572.03;;;6.24;100.00
9307;BME280;4691;47.612;7.610;2022-11-14T01:58:11;99562.50;;;6.56;100.00
9307;BME280;4691;47.612;7.610;2022-11-14T02:00:37;99573.56;;;6.66;100.00
9307;BME280;4691;47.612;7.610;2022-11-14T02:03:02;99579.47;;;6.53;100.00
9307;BME280;4691;47.612;7.610;2022-11-14T02:05:28;99578.78;;;5.93;100.00
9307;BME280;4691;47.612;7.610;2022-11-14T02:07:55;99548.34;;;5.43;100.00
9307;BME280;4691;47.612;7.610;2022-11-14T02:10:20;99516.22;;;5.31;100.00
9307;BME280;4691;47.612;7.610;2022-11-14T02:12:47;99464.47;;;5.22;100.00
9307;BME280;4691;47.612;7.610;2022-11-14T02:15:14;99441.09;;;5.11;100.00
9307;BME280;4691;47.612;7.610;2022-11-14T02:17:40;99425.97;;;5.13;100.00
9307;BME280;4691;47.612;7.610;2022-11-14T02:20:14;99443.47;;;5.17;100.00
9307;BME280;4691;47.612;7.610;2022-11-14T02:22:41;99512.75;;;5.10;100.00
9307;BME280;4691;47.612;7.610;2022-11-14T02:25:07;99529.50;;;5.10;100.00
9307;BME280;4691;47.612;7.610;2022-11-14T02:27:34;99528.03;;;5.03;100.00
9307;BME280;4691;47.612;7.610;2022-11-14T02:30:21;99539.25;;;5.10;100.00
9307;BME280;4691;47.612;7.610;2022-11-14T02:32:47;99537.88;;;5.01;100.00
9307;BME280;4691;47.612;7.610;2022-11-14T02:35:12;99535.75;;;5.09;100.00
9307;BME280;4691;47.612;7.610;2022-11-14T02:37:38;99527.94;;;5.06;100.00
9307;BME280;4691;47.612;7.610;2022-11-14T02:40:04;99530.34;;;5.11;100.00
9307;BME280;4691;47.612;7.610;2022-11-14T02:42:29;99526.09;;;5.27;100.00
9307;BME280;4691;47.612;7.610;2022-11-14T02:44:55;99514.16;;;5.37;100.00
9307;BME280;4691;47.612;7.610;2022-11-14T02:47:20;99518.22;;;5.26;100.00
9307;BME280;4691;47.612;7.610;2022-11-14T02:49:45;99513.19;;;5.19;100.00
9307;BME280;4691;47.612;7.610;2022-11-14T02:52:11;99512.59;;;5.13;100.00
9307;BME280;4691;47.612;7.610;2022-11-14T02:54:36;99516.03;;;5.15;100.00
9307;BME280;4691;47.612;7.610;2022-11-14T02:57:01;99511.75;;;5.12;100.00
9307;BME280;4691;47.612;7.610;2022-11-14T02:59:27;99516.09;;;5.13;100.00
9307;BME280;4691;47.612;7.610;2022-11-14T03:01:52;99506.72;;;5.06;100.00
9307;BME280;4691;47.612;7.610;2022-11-14T03:04:17;99522.88;;;5.00;100.00
9307;BME280;4691;47.612;7.610;2022-11-14T03:06:42;99515.34;;;4.91;100.00
9307;BME280;4691;47.612;7.610;2022-11-14T03:09:08;99518.38;;;4.82;100.00
9307;BME280;4691;47.612;7.610;2022-11-14T03:11:34;99522.22;;;4.74;100.00
9307;BME280;4691;47.612;7.610;2022-11-14T03:13:59;99523.75;;;4.80;100.00
9307;BME280;4691;47.612;7.610;2022-11-14T03:19:33;99527.53;;;4.74;100.00
9307;BME280;4691;47.612;7.610;2022-11-14T03:21:58;99524.06;;;4.72;100.00
9307;BME280;4691;47.612;7.610;2022-11-14T03:24:23;99506.19;;;4.77;100.00
9307;BME280;4691;47.612;7.610;2022-11-14T03:26:49;99508.72;;;4.80;100.00
9307;BME280;4691;47.612;7.610;2022-11-14T03:29:14;99490.94;;;5.03;100.00
9307;BME280;4691;47.612;7.610;2022-11-14T03:31:39;99479.22;;;5.09;100.00
9307;BME280;4691;47.612;7.610;2022-11-14T03:34:05;99472.75;;;5.14;100.00
9307;BME280;4691;47.612;7.610;2022-11-14T03:36:30;99455.84;;;5.17;100.00
9307;BME280;4691;47.612;7.610;2022-11-14T03:38:55;99455.38;;;5.28;100.00
9307;BME280;4691;47.612;7.610;2022-11-14T03:41:20;99456.41;;;5.23;100.00
9307;BME280;4691;47.612;7.610;2022-11-14T03:43:46;99454.00;;;5.19;100.00
9307;BME280;4691;47.612;7.610;2022-11-14T03:46:11;99449.09;;;5.10;100.00
9307;BME280;4691;47.612;7.610;2022-11-14T03:48:36;99455.41;;;5.07;100.00
9307;BME280;4691;47.612;7.610;2022-11-14T03:51:02;99462.72;;;5.02;100.00
9307;BME280;4691;47.612;7.610;2022-11-14T03:53:27;99468.69;;;4.87;100.00
9307;BME280;4691;47.612;7.610;2022-11-14T03:55:53;99484.59;;;4.87;100.00
9307;BME280;4691;47.612;7.610;2022-11-14T03:58:18;99493.50;;;4.86;100.00
9307;BME280;4691;47.612;7.610;2022-11-14T04:00:44;99500.09;;;4.96;100.00
9307;BME280;4691;47.612;7.610;2022-11-14T04:03:09;99499.97;;;4.99;100.00
9307;BME280;4691;47.612;7.610;2022-11-14T04:05:34;99490.69;;;5.09;100.00
9307;BME280;4691;47.612;7.610;2022-11-14T04:08:00;99473.63;;;5.15;100.00
9307;BME280;4691;47.612;7.610;2022-11-14T04:10:28;99465.38;;;5.21;100.00
9307;BME280;4691;47.612;7.610;2022-11-14T04:12:53;99464.31;;;5.25;100.00
9307;BME280;4691;47.612;7.610;2022-11-14T04:15:18;99450.84;;;5.30;100.00
9307;BME280;4691;47.612;7.610;2022-11-14T04:17:44;99438.25;;;5.35;100.00
9307;BME280;4691;47.612;7.610;2022-11-14T04:20:11;99439.28;;;5.50;100.00
9307;BME280;4691;47.612;7.610;2022-11-14T04:22:36;99420.13;;;5.81;100.00
9307;BME280;4691;47.612;7.610;2022-11-14T04:25:02;99407.00;;;6.14;100.00
9307;BME280;4691;47.612;7.610;2022-11-14T04:27:28;99390.91;;;6.68;100.00
9307;BME280;4691;47.612;7.610;2022-11-14T04:29:53;99403.59;;;6.63;100.00
9307;BME280;4691;47.612;7.610;2022-11-14T04:32:18;99406.34;;;6.61;100.00
9307;BME280;4691;47.612;7.610;2022-11-14T04:34:43;99424.22;;;6.58;100.00
9307;BME280;4691;47.612;7.610;2022-11-14T04:37:09;99422.41;;;6.25;100.00
9307;BME280;4691;47.612;7.610;2022-11-14T04:39:34;99430.88;;;6.31;100.00
9307;BME280;4691;47.612;7.610;2022-11-14T04:41:59;99410.00;;;6.76;100.00
9307;BME280;4691;47.612;7.610;2022-11-14T04:44:25;99397.88;;;6.70;100.00
9307;BME280;4691;47.612;7.610;2022-11-14T04:46:50;99414.56;;;6.39;100.00
9307;BME280;4691;47.612;7.610;2022-11-14T04:49:15;99412.84;;;6.56;100.00
9307;BME280;4691;47.612;7.610;2022-11-14T04:51:41;99428.22;;;6.31;100.00
9307;BME280;4691;47.612;7.610;2022-11-14T04:54:06;99418.47;;;6.15;100.00
9307;BME280;4691;47.612;7.610;2022-11-14T04:56:32;99407.53;;;6.03;100.00
9307;BME280;4691;47.612;7.610;2022-11-14T04:58:57;99392.53;;;6.02;100.00
9307;BME280;4691;47.612;7.610;2022-11-14T05:01:22;99399.88;;;5.97;100.00
9307;BME280;4691;47.612;7.610;2022-11-14T05:03:48;99376.25;;;5.91;100.00
9307;BME280;4691;47.612;7.610;2022-11-14T05:06:13;99380.34;;;5.98;100.00
9307;BME280;4691;47.612;7.610;2022-11-14T05:08:38;99384.22;;;5.91;100.00
9307;BME280;4691;47.612;7.610;2022-11-14T05:11:04;99381.91;;;6.02;100.00
9307;BME280;4691;47.612;7.610;2022-11-14T05:13:29;99387.22;;;6.02;100.00
9307;BME280;4691;47.612;7.610;2022-11-14T05:15:59;99392.69;;;5.99;100.00
9307;BME280;4691;47.612;7.610;2022-11-14T05:18:24;99385.19;;;6.07;100.00
9307;BME280;4691;47.612;7.610;2022-11-14T05:20:50;99386.91;;;6.08;100.00
9307;BME280;4691;47.612;7.610;2022-11-14T05:23:19;99376.16;;;6.12;100.00
9307;BME280;4691;47.612;7.610;2022-11-14T05:25:45;99389.34;;;6.13;100.00
9307;BME280;4691;47.612;7.610;2022-11-14T05:28:10;99391.75;;;6.18;100.00
9307;BME280;4691;47.612;7.610;2022-11-14T05:30:35;99372.63;;;6.28;100.00
9307;BME280;4691;47.612;7.610;2022-11-14T05:33:01;99377.63;;;6.35;100.00
9307;BME280;4691;47.612;7.610;2022-11-14T05:35:26;99372.00;;;6.41;100.00
9307;BME280;4691;47.612;7.610;2022-11-14T05:37:51;99365.19;;;6.52;100.00
9307;BME280;4691;47.612;7.610;2022-11-14T05:40:17;99370.75;;;6.81;100.00
9307;BME280;4691;47.612;7.610;2022-11-14T05:42:43;99364.53;;;6.81;100.00
9307;BME280;4691;47.612;7.610;2022-11-14T05:45:09;99362.56;;;7.33;100.00
9307;BME280;4691;47.612;7.610;2022-11-14T05:47:34;99367.25;;;7.60;100.00
9307;BME280;4691;47.612;7.610;2022-11-14T05:50:00;99382.97;;;7.49;100.00
9307;BME280;4691;47.612;7.610;2022-11-14T05:52:25;99379.13;;;7.38;100.00
9307;BME280;4691;47.612;7.610;2022-11-14T05:54:50;99347.25;;;7.69;100.00
9307;BME280;4691;47.612;7.610;2022-11-14T05:57:16;99361.91;;;7.92;100.00
9307;BME280;4691;47.612;7.610;2022-11-14T05:59:41;99395.63;;;7.91;100.00
9307;BME280;4691;47.612;7.610;2022-11-14T06:02:06;99388.22;;;8.12;100.00
9307;BME280;4691;47.612;7.610;2022-11-14T06:04:32;99410.16;;;8.32;100.00
9307;BME280;4691;47.612;7.610;2022-11-14T06:06:57;99425.78;;;8.38;100.00
9307;BME280;4691;47.612;7.610;2022-11-14T06:09:22;99420.91;;;8.30;100.00
9307;BME280;4691;47.612;7.610;2022-11-14T06:11:48;99410.00;;;8.19;100.00
9307;BME280;4691;47.612;7.610;2022-11-14T06:14:13;99400.69;;;8.42;100.00
9307;BME280;4691;47.612;7.610;2022-11-14T06:16:38;99380.91;;;8.46;100.00
9307;BME280;4691;47.612;7.610;2022-11-14T06:19:04;99355.16;;;8.31;100.00
9307;BME280;4691;47.612;7.610;2022-11-14T06:21:29;99366.84;;;8.28;100.00
9307;BME280;4691;47.612;7.610;2022-11-14T06:23:54;99352.72;;;8.42;100.00
9307;BME280;4691;47.612;7.610;2022-11-14T06:26:22;99345.16;;;8.34;100.00
9307;BME280;4691;47.612;7.610;2022-11-14T06:28:49;99345.56;;;8.42;100.00
9307;BME280;4691;47.612;7.610;2022-11-14T06:31:15;99346.38;;;8.59;100.00
9307;BME280;4691;47.612;7.610;2022-11-14T06:33:40;99317.97;;;8.58;100.00
9307;BME280;4691;47.612;7.610;2022-11-14T06:36:07;99324.66;;;8.50;100.00
9307;BME280;4691;47.612;7.610;2022-11-14T06:38:34;99327.72;;;8.59;100.00
9307;BME280;4691;47.612;7.610;2022-11-14T06:41:11;99300.28;;;8.57;100.00
9307;BME280;4691;47.612;7.610;2022-11-14T06:43:39;99278.06;;;8.70;100.00
9307;BME280;4691;47.612;7.610;2022-11-14T06:46:05;99276.88;;;8.76;100.00
9307;BME280;4691;47.612;7.610;2022-11-14T06:48:31;99248.94;;;8.82;100.00
9307;BME280;4691;47.612;7.610;2022-11-14T06:50:57;99238.66;;;8.76;100.00
9307;BME280;4691;47.612;7.610;2022-11-14T06:53:24;99234.25;;;8.89;100.00
9307;BME280;4691;47.612;7.610;2022-11-14T06:56:07;99210.63;;;8.97;100.00
9307;BME280;4691;47.612;7.610;2022-11-14T06:58:38;99205.91;;;9.01;100.00
9307;BME280;4691;47.612;7.610;2022-11-14T07:01:05;99184.06;;;9.08;100.00
9307;BME280;4691;47.612;7.610;2022-11-14T07:03:31;99173.81;;;9.02;100.00
9307;BME280;4691;47.612;7.610;2022-11-14T07:05:57;99161.81;;;9.22;100.00
9307;BME280;4691;47.612;7.610;2022-11-14T07:08:22;99118.59;;;9.30;100.00
9307;BME280;4691;47.612;7.610;2022-11-14T07:10:48;99113.06;;;9.33;100.00
9307;BME280;4691;47.612;7.610;2022-11-14T07:13:13;99094.94;;;9.51;100.00
9307;BME280;4691;47.612;7.610;2022-11-14T07:15:38;99071.97;;;9.48;100.00
9307;BME280;4691;47.612;7.610;2022-11-14T07:18:04;99073.06;;;9.58;100.00
9307;BME280;4691;47.612;7.610;2022-11-14T07:20:29;99048.03;;;9.59;100.00
9307;BME280;4691;47.612;7.610;2022-11-14T07:22:54;99053.59;;;9.56;100.00
9307;BME280;4691;47.612;7.610;2022-11-14T07:25:20;99066.19;;;9.54;100.00
9307;BME280;4691;47.612;7.610;2022-11-14T07:27:47;99062.56;;;9.55;100.00
9307;BME280;4691;47.612;7.610;2022-11-14T07:30:12;99061.63;;;9.56;100.00
9307;BME280;4691;47.612;7.610;2022-11-14T07:32:38;99050.81;;;9.71;100.00
9307;BME280;4691;47.612;7.610;2022-11-14T07:35:03;99013.94;;;9.76;100.00
9307;BME280;4691;47.612;7.610;2022-11-14T07:37:28;99017.06;;;9.70;100.00
9307;BME280;4691;47.612;7.610;2022-11-14T07:39:54;99036.72;;;9.69;100.00
9307;BME280;4691;47.612;7.610;2022-11-14T07:42:19;99043.44;;;9.74;100.00
9307;BME280;4691;47.612;7.610;2022-11-14T07:44:44;99030.06;;;9.87;100.00
9307;BME280;4691;47.612;7.610;2022-11-14T07:47:09;99007.50;;;9.91;100.00
9307;BME280;4691;47.612;7.610;2022-11-14T07:49:35;98992.41;;;10.03;100.00
9307;BME280;4691;47.612;7.610;2022-11-14T07:52:00;98968.69;;;9.98;100.00
9307;BME280;4691;47.612;7.610;2022-11-14T07:54:25;98967.63;;;10.01;100.00
9307;BME280;4691;47.612;7.610;2022-11-14T07:56:51;98951.88;;;10.09;100.00
9307;BME280;4691;47.612;7.610;2022-11-14T07:59:16;98923.34;;;10.10;100.00
9307;BME280;4691;47.612;7.610;2022-11-14T08:01:41;98917.06;;;10.22;100.00
9307;BME280;4691;47.612;7.610;2022-11-14T08:04:06;98841.59;;;10.42;100.00
9307;BME280;4691;47.612;7.610;2022-11-14T08:06:32;98826.91;;;10.37;100.00
9307;BME280;4691;47.612;7.610;2022-11-14T08:08:57;98825.22;;;10.47;100.00
9307;BME280;4691;47.612;7.610;2022-11-14T08:11:22;98787.44;;;10.63;100.00
9307;BME280;4691;47.612;7.610;2022-11-14T08:14:06;98779.66;;;10.49;100.00
9307;BME280;4691;47.612;7.610;2022-11-14T08:16:32;98780.38;;;10.39;100.00
9307;BME280;4691;47.612;7.610;2022-11-14T08:18:57;98817.78;;;10.39;100.00
9307;BME280;4691;47.612;7.610;2022-11-14T08:21:23;98810.75;;;10.38;100.00
9307;BME280;4691;47.612;7.610;2022-11-14T08:23:48;98827.63;;;10.39;100.00
9307;BME280;4691;47.612;7.610;2022-11-14T08:26:13;98821.44;;;10.38;100.00
9307;BME280;4691;47.612;7.610;2022-11-14T08:28:38;98845.03;;;10.44;100.00
9307;BME280;4691;47.612;7.610;2022-11-14T08:31:04;98851.47;;;10.53;100.00
9307;BME280;4691;47.612;7.610;2022-11-14T08:33:30;98842.47;;;10.43;100.00
9307;BME280;4691;47.612;7.610;2022-11-14T08:36:02;98837.03;;;10.67;100.00
9307;BME280;4691;47.612;7.610;2022-11-14T08:38:29;98813.72;;;10.69;100.00
9307;BME280;4691;47.612;7.610;2022-11-14T08:41:02;98834.13;;;10.59;100.00
9307;BME280;4691;47.612;7.610;2022-11-14T08:43:31;98854.03;;;10.55;100.00
9307;BME280;4691;47.612;7.610;2022-11-14T08:46:01;98884.78;;;10.49;100.00
9307;BME280;4691;47.612;7.610;2022-11-14T08:48:28;98925.72;;;10.50;100.00
9307;BME280;4691;47.612;7.610;2022-11-14T08:50:53;98946.03;;;10.52;100.00
9307;BME280;4691;47.612;7.610;2022-11-14T08:53:19;98985.63;;;10.47;100.00
9307;BME280;4691;47.612;7.610;2022-11-14T08:55:45;99005.03;;;10.62;100.00
9307;BME280;4691;47.612;7.610;2022-11-14T08:58:11;99004.50;;;10.57;100.00
9307;BME280;4691;47.612;7.610;2022-11-14T09:00:36;99000.41;;;10.40;100.00
9307;BME280;4691;47.612;7.610;2022-11-14T09:03:08;99031.31;;;10.44;100.00
9307;BME280;4691;47.612;7.610;2022-11-14T09:05:35;99061.09;;;10.51;100.00
9307;BME280;4691;47.612;7.610;2022-11-14T09:08:01;99047.03;;;10.49;100.00
9307;BME280;4691;47.612;7.610;2022-11-14T09:10:26;99040.81;;;10.48;100.00
9307;BME280;4691;47.612;7.610;2022-11-14T09:12:59;99043.59;;;10.46;100.00
9307;BME280;4691;47.612;7.610;2022-11-14T09:15:26;99072.81;;;10.61;100.00
9307;BME280;4691;47.612;7.610;2022-11-14T09:17:53;99068.78;;;10.55;100.00
9307;BME280;4691;47.612;7.610;2022-11-14T09:20:19;99074.56;;;10.62;100.00
9307;BME280;4691;47.612;7.610;2022-11-14T09:22:44;99077.09;;;10.63;100.00
9307;BME280;4691;47.612;7.610;2022-11-14T09:25:10;99083.00;;;10.56;100.00
9307;BME280;4691;47.612;7.610;2022-11-14T09:27:35;99092.97;;;10.54;100.00
9307;BME280;4691;47.612;7.610;2022-11-14T09:30:00;99103.44;;;10.57;100.00
9307;BME280;4691;47.612;7.610;2022-11-14T09:32:26;99099.00;;;10.44;100.00
9307;BME280;4691;47.612;7.610;2022-11-14T09:34:51;99115.56;;;10.50;100.00
9307;BME280;4691;47.612;7.610;2022-11-14T09:37:16;99115.84;;;10.58;100.00
9307;BME280;4691;47.612;7.610;2022-11-14T09:39:41;99125.38;;;10.62;100.00
9307;BME280;4691;47.612;7.610;2022-11-14T09:45:00;99046.91;;;10.74;100.00
9307;BME280;4691;47.612;7.610;2022-11-14T09:47:38;99029.41;;;10.81;100.00
9307;BME280;4691;47.612;7.610;2022-11-14T09:50:26;98980.81;;;10.99;100.00
9307;BME280;4691;47.612;7.610;2022-11-14T09:52:57;98929.63;;;11.15;100.00
9307;BME280;4691;47.612;7.610;2022-11-14T09:55:28;98885.09;;;11.14;100.00
9307;BME280;4691;47.612;7.610;2022-11-14T09:57:54;98886.69;;;11.16;100.00
9307;BME280;4691;47.612;7.610;2022-11-14T10:00:22;98867.47;;;11.00;100.00
9307;BME280;4691;47.612;7.610;2022-11-14T10:03:09;98848.13;;;11.07;100.00
9307;BME280;4691;47.612;7.610;2022-11-14T10:08:23;98905.75;;;10.89;100.00
9307;BME280;4691;47.612;7.610;2022-11-14T10:14:07;98957.56;;;10.88;100.00
9307;BME280;4691;47.612;7.610;2022-11-14T10:19:43;98914.41;;;11.04;100.00
9307;BME280;4691;47.612;7.610;2022-11-14T10:22:18;98889.59;;;11.24;100.00
9307;BME280;4691;47.612;7.610;2022-11-14T10:27:35;98835.81;;;11.27;100.00
9307;BME280;4691;47.612;7.610;2022-11-14T10:30:01;98798.34;;;11.27;100.00
9307;BME280;4691;47.612;7.610;2022-11-14T10:35:26;98797.63;;;11.25;100.00
9307;BME280;4691;47.612;7.610;2022-11-14T10:38:14;98798.81;;;11.32;100.00
9307;BME280;4691;47.612;7.610;2022-11-14T10:40:46;98748.91;;;11.43;100.00
9307;BME280;4691;47.612;7.610;2022-11-14T10:43:22;98745.47;;;11.52;100.00
9307;BME280;4691;47.612;7.610;2022-11-14T10:45:52;98730.34;;;11.62;100.00
9307;BME280;4691;47.612;7.610;2022-11-14T10:50:57;98701.59;;;11.85;100.00
9307;BME280;4691;47.612;7.610;2022-11-14T10:55:57;98622.53;;;12.12;100.00
9307;BME280;4691;47.612;7.610;2022-11-14T10:58:23;98566.41;;;12.20;100.00
9307;BME280;4691;47.612;7.610;2022-11-14T11:00:48;98567.28;;;12.20;100.00
9307;BME280;4691;47.612;7.610;2022-11-14T11:03:13;98569.53;;;12.25;100.00
9307;BME280;4691;47.612;7.610;2022-11-14T11:05:48;98603.84;;;12.31;100.00
9307;BME280;4691;47.612;7.610;2022-11-14T11:08:18;98553.47;;;12.35;100.00
9307;BME280;4691;47.612;7.610;2022-11-14T11:11:03;98507.75;;;12.36;100.00
9307;BME280;4691;47.612;7.610;2022-11-14T11:13:54;98482.78;;;12.55;100.00
9307;BME280;4691;47.612;7.610;2022-11-14T11:16:22;98448.50;;;12.59;100.00
9307;BME280;4691;47.612;7.610;2022-11-14T11:18:48;98347.09;;;12.82;100.00
9307;BME280;4691;47.612;7.610;2022-11-14T11:21:16;98349.00;;;12.99;100.00
9307;BME280;4691;47.612;7.610;2022-11-14T11:23:55;98285.63;;;14.25;100.00
9307;BME280;4691;47.612;7.610;2022-11-14T11:26:29;98143.84;;;14.09;100.00
9307;BME280;4691;47.612;7.610;2022-11-14T11:29:03;98178.22;;;13.26;100.00
9307;BME280;4691;47.612;7.610;2022-11-14T11:31:48;98159.09;;;12.93;100.00
9307;BME280;4691;47.612;7.610;2022-11-14T11:34:17;98271.91;;;12.92;100.00
9307;BME280;4691;47.612;7.610;2022-11-14T11:36:47;98256.47;;;12.76;100.00
9307;BME280;4691;47.612;7.610;2022-11-14T11:39:22;98260.97;;;12.75;100.00
9307;BME280;4691;47.612;7.610;2022-11-14T11:41:50;98187.91;;;12.91;100.00
9307;BME280;4691;47.612;7.610;2022-11-14T11:44:19;98176.28;;;13.00;100.00
9307;BME280;4691;47.612;7.610;2022-11-14T11:46:55;98258.69;;;12.90;100.00
9307;BME280;4691;47.612;7.610;2022-11-14T11:49:35;98258.69;;;13.81;100.00
9307;BME280;4691;47.612;7.610;2022-11-14T11:52:03;97981.59;;;15.02;100.00
9307;BME280;4691;47.612;7.610;2022-11-14T11:54:35;98009.13;;;14.12;100.00
9307;BME280;4691;47.612;7.610;2022-11-14T11:57:11;98031.84;;;13.58;100.00
9307;BME280;4691;47.612;7.610;2022-11-14T11:59:41;98041.31;;;13.70;100.00
9307;BME280;4691;47.612;7.610;2022-11-14T12:02:24;98092.47;;;13.42;100.00
9307;BME280;4691;47.612;7.610;2022-11-14T12:04:50;98072.75;;;13.52;100.00
9307;BME280;4691;47.612;7.610;2022-11-14T12:07:19;98161.34;;;13.16;100.00
9307;BME280;4691;47.612;7.610;2022-11-14T12:09:47;98152.91;;;13.11;100.00
9307;BME280;4691;47.612;7.610;2022-11-14T12:15:26;98242.94;;;13.23;100.00
9307;BME280;4691;47.612;7.610;2022-11-14T12:20:43;98285.09;;;13.13;100.00
9307;BME280;4691;47.612;7.610;2022-11-14T12:26:22;98169.84;;;13.11;100.00
9307;BME280;4691;47.612;7.610;2022-11-14T12:29:15;98292.78;;;13.07;100.00
9307;BME280;4691;47.612;7.610;2022-11-14T12:31:46;98316.81;;;12.99;100.00
9307;BME280;4691;47.612;7.610;2022-11-14T12:34:29;98351.69;;;12.99;100.00
9307;BME280;4691;47.612;7.610;2022-11-14T12:36:55;98327.38;;;13.11;100.00
9307;BME280;4691;47.612;7.610;2022-11-14T12:39:26;98500.31;;;12.98;100.00
9307;BME280;4691;47.612;7.610;2022-11-14T12:42:06;98567.25;;;12.90;100.00
9307;BME280;4691;47.612;7.610;2022-11-14T12:44:39;98487.31;;;13.03;100.00
9307;BME280;4691;47.612;7.610;2022-11-14T13:00:35;98843.72;;;12.69;100.00
9307;BME280;4691;47.612;7.610;2022-11-14T13:06:09;98883.47;;;12.85;100.00
9307;BME280;4691;47.612;7.610;2022-11-14T13:08:57;98933.00;;;12.81;100.00
9307;BME280;4691;47.612;7.610;2022-11-14T13:14:16;99023.66;;;12.77;100.00
9307;BME280;4691;47.612;7.610;2022-11-14T13:34:01;98908.84;;;12.39;100.00
9307;BME280;4691;47.612;7.610;2022-11-14T13:36:46;98913.13;;;12.41;100.00
9307;BME280;4691;47.612;7.610;2022-11-14T13:42:54;98822.25;;;12.48;100.00
9307;BME280;4691;47.612;7.610;2022-11-14T13:45:44;98824.72;;;12.40;100.00
9307;BME280;4691;47.612;7.610;2022-11-14T13:50:41;99086.81;;;12.38;100.00
9307;BME280;4691;47.612;7.610;2022-11-14T13:53:12;99012.44;;;12.40;100.00
9307;BME280;4691;47.612;7.610;2022-11-14T13:55:48;98960.78;;;12.38;100.00
9307;BME280;4691;47.612;7.610;2022-11-14T14:01:23;98940.81;;;12.31;100.00
9307;BME280;4691;47.612;7.610;2022-11-14T14:04:03;98891.03;;;12.38;100.00
9307;BME280;4691;47.612;7.610;2022-11-14T14:09:43;98904.50;;;12.27;100.00
9307;BME280;4691;47.612;7.610;2022-11-14T14:22:46;98856.53;;;12.24;100.00
9307;BME280;4691;47.612;7.610;2022-11-14T14:25:21;98764.78;;;12.41;100.00
9307;BME280;4691;47.612;7.610;2022-11-14T14:28:10;98604.63;;;12.62;100.00
9307;BME280;4691;47.612;7.610;2022-11-14T14:30:39;98618.69;;;12.45;100.00
9307;BME280;4691;47.612;7.610;2022-11-14T14:33:11;98749.59;;;12.30;100.00
9307;BME280;4691;47.612;7.610;2022-11-14T14:35:37;98831.94;;;12.18;100.00
9307;BME280;4691;47.612;7.610;2022-11-14T14:38:11;98865.53;;;12.23;100.00
9307;BME280;4691;47.612;7.610;2022-11-14T14:40:39;98902.13;;;12.12;100.00
9307;BME280;4691;47.612;7.610;2022-11-14T14:43:05;98874.56;;;12.22;100.00
9307;BME280;4691;47.612;7.610;2022-11-14T14:45:45;98875.09;;;12.15;100.00
9307;BME280;4691;47.612;7.610;2022-11-14T14:48:14;98907.75;;;12.09;100.00
9307;BME280;4691;47.612;7.610;2022-11-14T14:51:09;98895.91;;;12.12;100.00
9307;BME280;4691;47.612;7.610;2022-11-14T14:53:36;98905.31;;;12.06;100.00
9307;BME280;4691;47.612;7.610;2022-11-14T14:56:18;98878.47;;;12.17;100.00
9307;BME280;4691;47.612;7.610;2022-11-14T14:58:44;98765.69;;;12.30;100.00